Satellite Actuals Today Synoptics Week ahead

Weather information and forecast links for Shobdon, the Midlands, Western England and Wales

Today:

BBC Leominster local forecast and regional video.

Met Office general forecast

Met Office F214 and F215 charts (as displayed in the Aero Club each day) You have to register to use this site, but it is free.

Links to pretty much everything you need Rackham's home.

Satellite Met Office or Sat24 - visual for lower cloud, infrared for upper cloud.

XCWeather Wind map and local forecast

Will it Rain Today?

TAFs and METARs EGBB:Birmingham EGFF:Cardiff EGVN:Brize Norton

Local forecasts Met Office  MetCheck  Weatherweb

RASP Ridge wind forecast

Dewpoint+Temperature tephigram UK Soundings or Weather online


Other Club sites:Dunstable  Lasham  Nympsfield Long Mynd

Shobdon Hangar web-cam facing Southwest

Latest TAFs

Birmingham

2019/06/25 19:42
TAF 
      AMD EGBB 251937Z 2519/2618 03006KT 9999 BKN016 
      TEMPO 2519/2523 2500 DZ BKN009 PROB40 
      TEMPO 2523/2607 1400 DZ BKN001

Brize Norton

2019/06/25 21:55
TAF EGVN 251948Z 2521/2621 06008KT 7000 BR BKN006 PROB30 
      TEMPO 2521/2606 4000 BKN003 
      BECMG 2606/2608 9999 NSW BKN010 
      BECMG 2608/2611 BKN015 
      BECMG 2611/2614 SCT025 PROB30 2619/2621 SCT010

Cardiff

2019/06/25 18:06
TAF EGFF 251657Z 2518/2618 VRB03KT 9999 FEW007 SCT015 
      BECMG 2518/2521 06010KT PROB30 
      TEMPO 2518/2523 4000 BR BKN008 
      TEMPO 2523/2609 8000 BKN010 PROB30 
      TEMPO 2523/2607 4500 BR BKN005

Select station

2019/06/25 18:06
TAF EGCC 251658Z 2518/2624 04008KT 9999 SCT012 BKN020 
      TEMPO 2518/2610 BKN014

Decode?  - Copy the TAF (from the station code) and paste it into the METARs/TAFs box here.

Soaring data for today

Data provided by RASP

Today's Forecast for Shobdon (52.24207,-2.87443)
Stars rating
Wind direction
Wind speed
Cumrasp-uk.ukulus potential
Surface Sunshine
Surface Temperature
MSL Pressuree
Rainfall